Time;durP1;ratioP1;P1;durP2;ratioP2;P2;SDS_P1;SDS_P2;PMS_P1;PMS_P2;Temp;Humidity;BMP_temperature;BMP_pressure;BME280_temperature;BME280_humidity;BME280_pressure;Samples;Min_cycle;Max_cycle;Signal;HPM_P1;HPM_P2
2021/03/31 00:00:40;;;;;;;17.08;11.07;;;;;;;7.57;43.66;96154.38;5090310;28;20199;-66
2021/03/31 00:03:15;;;;;;;15.93;11.43;;;;;;;7.46;44.16;96168.03;5082241;28;20221;-66
2021/03/31 00:05:42;;;;;;;17.00;11.50;;;;;;;7.54;44.20;96162.59;5088515;28;20215;-66
2021/03/31 00:08:09;;;;;;;17.52;10.93;;;;;;;7.56;44.29;96158.78;5082109;28;20245;-67
2021/03/31 00:10:42;;;;;;;18.42;11.27;;;;;;;7.66;44.34;96150.53;5090941;28;20666;-67
2021/03/31 00:13:09;;;;;;;17.67;11.90;;;;;;;7.68;44.05;96166.78;5082876;28;20241;-71
2021/03/31 00:15:36;;;;;;;18.10;11.70;;;;;;;7.60;44.39;96148.72;5091245;28;20202;-67
2021/03/31 00:18:07;;;;;;;17.77;11.00;;;;;;;7.22;44.80;96162.47;5083325;28;20499;-66
2021/03/31 00:20:35;;;;;;;15.93;11.18;;;;;;;7.11;44.63;96151.88;5089460;28;20203;-67
2021/03/31 00:23:05;;;;;;;14.23;10.52;;;;;;;6.91;45.37;96146.69;5080949;28;20690;-71
2021/03/31 00:25:31;;;;;;;18.98;10.90;;;;;;;6.98;45.04;96150.09;5089771;28;20684;-66
2021/03/31 00:27:58;;;;;;;14.18;10.07;;;;;;;7.14;44.57;96144.44;5078564;28;20227;-66
2021/03/31 00:30:25;;;;;;;17.65;11.13;;;;;;;7.16;44.23;96147.66;5089470;28;20576;-69
2021/03/31 00:32:52;;;;;;;18.75;10.55;;;;;;;7.04;44.65;96136.22;5080094;28;20248;-66
2021/03/31 00:35:19;;;;;;;16.95;10.23;;;;;;;7.14;44.56;96147.06;5090018;28;20175;-65
2021/03/31 00:37:45;;;;;;;16.40;10.65;;;;;;;7.27;44.30;96142.81;5078838;28;20199;-68
2021/03/31 00:40:18;;;;;;;15.73;10.50;;;;;;;7.33;44.15;96142.00;5090558;28;20272;-69
2021/03/31 00:42:45;;;;;;;14.00;9.45;;;;;;;7.32;44.77;96138.56;5082318;28;20216;-66
2021/03/31 00:45:13;;;;;;;15.60;9.82;;;;;;;7.34;44.13;96143.59;5070386;28;20191;-66
2021/03/31 00:47:40;;;;;;;19.63;9.85;;;;;;;7.35;43.95;96134.78;5077931;28;20227;-67
2021/03/31 00:50:14;;;;;;;18.58;9.85;;;;;;;7.40;43.91;96137.56;5090865;28;20289;-67
2021/03/31 00:52:42;;;;;;;17.02;10.60;;;;;;;7.35;44.18;96129.56;5082103;28;20246;-69
2021/03/31 00:55:12;;;;;;;16.35;10.27;;;;;;;7.46;43.60;96136.75;5069979;28;20211;-68
2021/03/31 00:57:39;;;;;;;15.88;10.13;;;;;;;7.35;43.99;96140.81;5078250;28;20227;-66
2021/03/31 01:00:06;;;;;;;13.10;9.73;;;;;;;7.40;43.67;96134.97;5090591;28;20218;-66
2021/03/31 01:02:33;;;;;;;14.63;9.88;;;;;;;7.36;44.24;96136.38;5078067;28;20222;-65
2021/03/31 01:04:59;;;;;;;15.48;9.88;;;;;;;7.32;44.96;96135.97;5090376;28;20222;-66
2021/03/31 01:07:26;;;;;;;17.52;10.75;;;;;;;7.18;45.24;96137.81;5077698;28;20211;-66
2021/03/31 01:09:55;;;;;;;18.85;10.05;;;;;;;7.18;45.20;96137.03;5070373;28;20582;-70
2021/03/31 01:12:25;;;;;;;18.92;11.45;;;;;;;7.17;45.35;96133.59;5058288;28;20214;-66
2021/03/31 01:15:17;;;;;;;26.08;12.35;;;;;;;7.04;45.82;96138.84;5030509;28;20200;-67
2021/03/31 01:17:46;;;;;;;23.17;12.65;;;;;;;7.09;46.20;96128.63;5061417;28;20205;-65
2021/03/31 01:20:15;;;;;;;27.05;13.10;;;;;;;7.01;46.05;96134.03;5049780;28;20606;-68
2021/03/31 01:23:08;;;;;;;22.10;12.27;;;;;;;7.01;46.39;96128.81;5058088;28;20200;-69
2021/03/31 01:26:07;;;;;;;31.15;14.93;;;;;;;6.88;46.76;96139.25;5068075;28;20289;-70
2021/03/31 01:28:42;;;;;;;40.05;21.17;;;;;;;6.78;46.98;96131.06;5057486;28;20291;-69
2021/03/31 01:31:21;;;;;;;46.83;24.33;;;;;;;6.74;47.10;96132.47;5053991;28;20231;-68
2021/03/31 01:34:14;;;;;;;51.63;26.05;;;;;;;6.63;47.04;96140.88;5053309;28;20223;-67
2021/03/31 01:36:44;;;;;;;52.38;25.55;;;;;;;6.61;47.13;96132.47;5063004;28;20212;-66
2021/03/31 01:39:11;;;;;;;51.08;25.40;;;;;;;6.74;47.14;96132.47;5064599;28;20203;-65
2021/03/31 01:41:38;;;;;;;46.67;21.83;;;;;;;6.64;47.13;96139.88;5063493;28;20219;-70
2021/03/31 01:44:13;;;;;;;38.65;21.65;;;;;;;6.72;46.94;96131.88;5064540;28;20290;-67
2021/03/31 01:46:42;;;;;;;44.47;20.77;;;;;;;6.62;46.81;96141.91;5063479;28;20220;-69
2021/03/31 01:49:09;;;;;;;41.47;19.63;;;;;;;6.54;47.19;96142.09;5065127;28;20216;-66
2021/03/31 01:51:38;;;;;;;37.75;20.13;;;;;;;6.41;47.41;96134.25;5066099;28;20187;-67
2021/03/31 01:54:06;;;;;;;38.80;19.27;;;;;;;6.52;47.53;96138.88;5068524;28;20294;-67
2021/03/31 01:56:33;;;;;;;36.70;17.52;;;;;;;6.50;47.55;96142.66;5068395;28;20203;-67
2021/03/31 01:59:00;;;;;;;32.80;16.75;;;;;;;6.38;47.99;96145.06;5054225;28;20689;-69
2021/03/31 02:01:28;;;;;;;24.35;14.68;;;;;;;6.52;47.00;96138.88;5059366;28;20322;-67
2021/03/31 02:03:57;;;;;;;24.65;13.27;;;;;;;6.46;47.03;96134.44;5068382;28;20214;-71
2021/03/31 02:06:27;;;;;;;26.92;13.65;;;;;;;6.44;47.03;96131.25;5069022;28;20199;-69
2021/03/31 02:08:55;;;;;;;18.63;11.27;;;;;;;6.38;46.94;96142.47;5078612;28;20239;-64
2021/03/31 02:11:25;;;;;;;17.33;11.35;;;;;;;6.33;47.26;96134.47;5089517;28;20236;-68
2021/03/31 02:13:53;;;;;;;21.55;11.18;;;;;;;6.22;47.21;96132.44;5086193;28;20289;-66
2021/03/31 02:16:20;;;;;;;23.65;12.45;;;;;;;6.20;47.44;96134.44;5090308;28;20649;-70
2021/03/31 02:18:52;;;;;;;21.40;11.77;;;;;;;6.23;47.20;96134.03;5077605;28;20207;-65
2021/03/31 02:21:20;;;;;;;22.35;12.63;;;;;;;6.22;47.48;96137.66;5089763;28;20187;-65
2021/03/31 02:23:47;;;;;;;19.80;11.20;;;;;;;6.11;47.49;96125.22;5080408;28;20603;-68
2021/03/31 02:26:14;;;;;;;19.30;12.43;;;;;;;6.20;47.81;96134.44;5077544;28;20199;-66
2021/03/31 02:28:41;;;;;;;23.92;11.20;;;;;;;6.19;47.68;96138.03;5084736;28;20594;-66
2021/03/31 02:31:08;;;;;;;22.52;11.63;;;;;;;6.18;47.26;96131.22;5089993;28;20210;-69
2021/03/31 02:33:35;;;;;;;20.73;11.63;;;;;;;6.16;47.10;96133.22;5085062;28;20206;-69
2021/03/31 02:36:02;;;;;;;27.55;11.48;;;;;;;5.92;47.21;96110.34;5089690;28;20286;-66
2021/03/31 02:38:31;;;;;;;27.70;11.85;;;;;;;5.86;47.77;96113.72;5084503;28;20206;-68
2021/03/31 02:40:58;;;;;;;21.73;11.60;;;;;;;5.87;48.18;96128.34;5089448;28;20203;-68
2021/03/31 02:43:27;;;;;;;16.80;10.38;;;;;;;5.93;47.62;96138.78;5084325;28;20294;-66
2021/03/31 02:45:55;;;;;;;18.75;9.82;;;;;;;5.68;47.60;96109.06;5089207;28;20192;-68
2021/03/31 02:48:23;;;;;;;16.02;9.07;;;;;;;5.84;47.47;96133.94;5084431;28;20226;-68
2021/03/31 02:50:56;;;;;;;22.15;10.18;;;;;;;5.95;47.44;96133.38;5087868;28;20207;-66
2021/03/31 02:53:24;;;;;;;14.32;9.65;;;;;;;5.97;47.37;96136.56;5084131;28;20202;-69
2021/03/31 02:55:51;;;;;;;15.52;9.80;;;;;;;5.94;47.67;96134.38;5089489;28;20195;-70
2021/03/31 02:58:17;;;;;;;15.48;9.95;;;;;;;5.95;47.65;96122.97;5076801;28;20200;-70
2021/03/31 03:00:44;;;;;;;20.02;11.63;;;;;;;5.90;47.95;96131.38;5072950;28;20869;-66
2021/03/31 03:03:12;;;;;;;18.65;10.25;;;;;;;5.84;47.89;96124.34;5083338;28;20195;-68
2021/03/31 03:05:38;;;;;;;17.20;10.40;;;;;;;5.89;48.29;96131.56;5090750;28;20209;-70
2021/03/31 03:08:05;;;;;;;16.23;10.57;;;;;;;5.83;48.63;96132.34;5082501;28;20243;-71
2021/03/31 03:10:32;;;;;;;21.77;11.45;;;;;;;5.70;48.99;96127.88;5091188;28;20662;-70
2021/03/31 03:13:03;;;;;;;28.15;11.60;;;;;;;5.71;48.78;96128.69;5081004;28;20206;-68
2021/03/31 03:15:32;;;;;;;34.60;13.05;;;;;;;5.62;49.15;96124.66;5090953;28;20293;-70
2021/03/31 03:17:58;;;;;;;28.33;14.27;;;;;;;5.65;49.29;96124.25;5079643;28;20626;-68
2021/03/31 03:20:26;;;;;;;27.63;13.52;;;;;;;5.58;49.70;96126.03;5090815;28;20282;-70
2021/03/31 03:22:55;;;;;;;29.73;13.40;;;;;;;5.59;49.28;96132.81;5081495;28;20203;-70
2021/03/31 03:25:24;;;;;;;28.30;12.60;;;;;;;5.52;49.27;96126.78;5091343;28;20668;-68
2021/03/31 03:27:51;;;;;;;25.52;12.73;;;;;;;5.54;48.83;96132.59;5084255;28;20211;-66
2021/03/31 03:30:21;;;;;;;24.17;12.20;;;;;;;5.56;48.74;96139.22;5074771;28;20211;-68
2021/03/31 03:32:50;;;;;;;21.80;11.77;;;;;;;5.55;48.97;96142.81;5084372;28;20290;-68
2021/03/31 03:35:21;;;;;;;26.17;12.13;;;;;;;5.38;49.19;96130.34;5086388;28;20730;-69
2021/03/31 03:37:48;;;;;;;24.17;12.27;;;;;;;5.47;49.49;96147.38;5080342;28;20591;-68
2021/03/31 03:40:16;;;;;;;26.88;12.70;;;;;;;5.45;49.78;96136.38;5091915;28;20206;-67
2021/03/31 03:42:43;;;;;;;25.83;12.75;;;;;;;5.38;49.80;96138.13;5080131;28;20591;-69
2021/03/31 03:45:11;;;;;;;31.27;14.82;;;;;;;5.37;49.99;96139.13;5092090;28;20294;-69
2021/03/31 03:47:38;;;;;;;32.72;16.48;;;;;;;5.40;50.33;96136.94;5079582;28;20215;-69
2021/03/31 03:50:13;;;;;;;39.50;19.95;;;;;;;5.35;50.42;96122.91;5090790;28;20183;-67
2021/03/31 03:52:49;;;;;;;48.55;21.98;;;;;;;5.54;50.01;96122.22;5079283;28;20290;-69
2021/03/31 03:55:22;;;;;;;45.63;22.15;;;;;;;5.47;50.37;96124.78;5091826;28;20186;-67
2021/03/31 03:57:48;;;;;;;53.13;24.48;;;;;;;5.51;49.93;96122.59;5085291;28;20256;-68
2021/03/31 04:00:21;;;;;;;52.30;26.10;;;;;;;5.44;50.69;96126.97;5090527;28;20732;-68
2021/03/31 04:02:54;;;;;;;61.75;27.73;;;;;;;5.32;50.57;96129.31;5078685;28;20223;-71
2021/03/31 04:05:22;;;;;;;58.80;26.90;;;;;;;5.31;50.53;96138.09;5073900;28;20191;-67
2021/03/31 04:07:48;;;;;;;58.15;25.70;;;;;;;5.24;50.82;96141.66;5077550;28;20235;-72
2021/03/31 04:10:16;;;;;;;66.25;27.33;;;;;;;5.15;51.15;96154.81;5091869;28;20570;-68
2021/03/31 04:12:43;;;;;;;54.28;27.30;;;;;;;5.20;51.03;96153.44;5091687;28;20183;-69
2021/03/31 04:15:10;;;;;;;66.15;30.38;;;;;;;5.21;50.83;96152.44;5073085;28;20306;-67
2021/03/31 04:17:39;;;;;;;70.35;34.45;;;;;;;5.16;51.30;96156.41;5071415;28;20196;-68
2021/03/31 04:20:12;;;;;;;75.90;38.15;;;;;;;5.04;51.25;96151.94;5079650;28;20297;-70
2021/03/31 04:22:39;;;;;;;103.55;50.55;;;;;;;5.02;51.51;96154.72;5091644;28;20211;-67
2021/03/31 04:25:08;;;;;;;121.95;66.20;;;;;;;5.01;51.46;96158.31;5072014;28;20219;-65
2021/03/31 04:27:35;;;;;;;106.72;62.45;;;;;;;4.87;51.36;96141.03;5081774;28;20235;-68
2021/03/31 04:30:07;;;;;;;115.10;60.10;;;;;;;4.98;51.86;96147.50;5090830;28;20215;-69
2021/03/31 04:32:34;;;;;;;108.63;61.42;;;;;;;4.94;51.82;96154.06;5091466;28;20195;-68
2021/03/31 04:35:03;;;;;;;102.80;58.70;;;;;;;5.09;51.66;96160.75;5083518;28;20953;-72
2021/03/31 04:37:29;;;;;;;103.00;56.35;;;;;;;4.99;51.64;96159.50;5068776;28;20683;-71
2021/03/31 04:39:55;;;;;;;83.85;47.22;;;;;;;4.90;51.36;96145.84;5082764;28;20187;-72
2021/03/31 04:42:23;;;;;;;92.32;49.22;;;;;;;4.56;52.52;96169.16;5083194;28;20213;-70
2021/03/31 04:44:50;;;;;;;83.97;48.38;;;;;;;4.65;52.54;96160.22;5091252;28;20681;-72
2021/03/31 04:47:16;;;;;;;87.07;42.15;;;;;;;4.65;52.33;96168.03;5077933;28;20268;-67
2021/03/31 04:49:43;;;;;;;76.95;40.75;;;;;;;4.74;52.42;96174.72;5070150;28;20204;-69
2021/03/31 04:52:10;;;;;;;75.53;39.72;;;;;;;4.16;53.96;96171.59;5071182;28;20226;-76
2021/03/31 04:54:36;;;;;;;93.78;52.47;;;;;;;4.31;54.57;96165.34;5070872;28;20199;-70
2021/03/31 04:57:04;;;;;;;98.50;54.75;;;;;;;4.70;53.78;96173.47;5071082;28;20192;-71
2021/03/31 04:59:30;;;;;;;148.00;94.60;;;;;;;4.79;53.64;96169.75;5070822;28;20582;-71
2021/03/31 05:01:56;;;;;;;70.03;36.85;;;;;;;4.65;53.43;96147.25;5070720;28;20242;-74
2021/03/31 05:04:23;;;;;;;64.50;36.03;;;;;;;4.82;53.21;96161.56;5071321;28;20649;-72
2021/03/31 05:06:49;;;;;;;69.07;37.80;;;;;;;5.13;52.74;96164.59;5069501;28;20224;-69
2021/03/31 05:09:16;;;;;;;67.85;37.78;;;;;;;5.21;52.40;96163.63;5070222;28;20239;-69
2021/03/31 05:11:43;;;;;;;73.40;37.70;;;;;;;5.42;52.30;96160.94;5070079;28;20191;-72
2021/03/31 05:14:10;;;;;;;65.95;35.60;;;;;;;5.54;51.94;96164.63;5070531;28;20291;-72
2021/03/31 05:16:36;;;;;;;76.03;35.30;;;;;;;5.65;51.97;96171.06;5070149;28;20238;-69
2021/03/31 05:19:03;;;;;;;69.10;37.28;;;;;;;5.62;51.85;96166.25;5070919;28;20198;-69
2021/03/31 05:21:34;;;;;;;71.63;37.30;;;;;;;5.70;51.67;96159.09;5060119;28;20200;-69
2021/03/31 05:24:01;;;;;;;91.63;41.30;;;;;;;5.78;52.20;96171.13;5050376;28;20533;-69
2021/03/31 05:26:28;;;;;;;80.38;35.35;;;;;;;5.78;52.12;96165.91;5055098;28;20625;-69
2021/03/31 05:28:54;;;;;;;60.80;32.97;;;;;;;5.95;52.18;96168.00;5072688;28;20200;-70
2021/03/31 05:31:21;;;;;;;60.47;31.00;;;;;;;6.01;51.91;96161.22;5072281;28;20196;-70
2021/03/31 05:33:47;;;;;;;55.00;28.23;;;;;;;6.09;51.16;96166.25;5070849;28;20230;-70
2021/03/31 05:36:13;;;;;;;48.20;25.27;;;;;;;6.14;51.55;96163.84;5069650;28;20196;-70
2021/03/31 05:38:40;;;;;;;38.30;22.23;;;;;;;6.22;51.35;96153.28;5070209;28;20203;-70
2021/03/31 05:41:07;;;;;;;40.53;19.65;;;;;;;6.30;50.30;96160.88;5069275;28;20184;-74
2021/03/31 05:43:35;;;;;;;35.50;18.75;;;;;;;6.48;50.18;96168.91;5069930;28;20188;-68
2021/03/31 05:46:02;;;;;;;39.58;19.20;;;;;;;6.42;50.68;96172.31;5059917;28;20698;-68
2021/03/31 05:48:29;;;;;;;29.27;18.38;;;;;;;6.45;50.42;96153.69;5050031;28;20728;-68
2021/03/31 05:50:59;;;;;;;33.58;19.50;;;;;;;6.67;49.64;96162.13;5051911;28;20204;-70
2021/03/31 05:53:25;;;;;;;37.10;20.75;;;;;;;6.60;49.95;96146.50;5052368;28;20226;-67
2021/03/31 05:55:52;;;;;;;32.38;20.27;;;;;;;6.88;49.46;96156.69;5056878;28;20190;-70
2021/03/31 05:58:20;;;;;;;34.38;19.60;;;;;;;6.93;49.46;96157.69;5070154;28;20295;-68
2021/03/31 06:00:47;;;;;;;42.10;19.98;;;;;;;7.07;49.41;96159.28;5069768;28;20641;-69
2021/03/31 06:03:14;;;;;;;31.05;19.48;;;;;;;7.18;48.68;96166.50;5069713;28;20691;-69
2021/03/31 06:05:41;;;;;;;38.45;21.52;;;;;;;7.17;49.14;96164.88;5068747;28;20210;-69
2021/03/31 06:08:10;;;;;;;38.70;19.45;;;;;;;7.38;49.24;96160.44;5059719;28;20231;-69
2021/03/31 06:10:37;;;;;;;37.28;18.08;;;;;;;7.40;50.37;96150.59;5060261;28;20214;-68
2021/03/31 06:13:06;;;;;;;35.95;18.55;;;;;;;7.51;50.14;96160.41;5064749;28;20202;-71
2021/03/31 06:15:41;;;;;;;37.63;19.17;;;;;;;7.62;48.92;96159.75;5059451;28;20561;-69
2021/03/31 06:18:16;;;;;;;38.07;19.67;;;;;;;7.59;48.43;96157.56;5059313;28;20214;-69
2021/03/31 06:20:50;;;;;;;33.28;20.77;;;;;;;7.82;48.28;96163.09;5060095;28;20524;-70
2021/03/31 06:23:38;;;;;;;37.78;21.55;;;;;;;7.85;48.53;96160.06;5058887;28;20176;-72
2021/03/31 06:26:22;;;;;;;38.07;21.80;;;;;;;8.05;47.64;96158.97;5055261;28;20196;-70
2021/03/31 06:28:58;;;;;;;44.50;22.98;;;;;;;8.04;48.63;96162.59;5057861;28;20481;-68
2021/03/31 06:31:38;;;;;;;50.13;26.47;;;;;;;8.06;48.02;96152.72;5059777;28;20230;-70
2021/03/31 06:34:32;;;;;;;52.23;27.13;;;;;;;8.14;47.49;96152.50;5063041;28;20992;-70
2021/03/31 06:37:01;;;;;;;45.53;26.70;;;;;;;8.23;47.88;96147.81;5063320;28;20808;-70
2021/03/31 06:39:35;;;;;;;51.93;29.80;;;;;;;8.44;47.81;96144.13;5060967;28;20463;-71
2021/03/31 06:42:19;;;;;;;56.67;30.50;;;;;;;8.57;46.86;96150.06;5061698;28;20808;-70
2021/03/31 06:45:12;;;;;;;53.20;31.40;;;;;;;8.71;47.77;96143.72;5062841;28;20472;-69
2021/03/31 06:48:00;;;;;;;59.57;30.40;;;;;;;8.86;45.70;96140.78;5063774;28;20486;-70
2021/03/31 06:50:29;;;;;;;54.83;31.50;;;;;;;8.92;46.93;96140.72;5064061;28;20442;-68
2021/03/31 06:53:05;;;;;;;59.97;32.13;;;;;;;9.23;46.39;96148.47;5063105;28;20985;-69
2021/03/31 06:55:32;;;;;;;58.87;32.73;;;;;;;9.43;45.80;96142.25;5062467;28;20851;-71
2021/03/31 06:58:01;;;;;;;48.40;29.83;;;;;;;9.55;44.64;96135.25;5061381;28;20462;-71
2021/03/31 07:00:32;;;;;;;56.03;30.23;;;;;;;9.65;44.54;96146.81;5062484;28;20441;-70
2021/03/31 07:03:07;;;;;;;52.30;28.23;;;;;;;9.71;44.35;96135.47;5063329;28;20434;-69
2021/03/31 07:05:39;;;;;;;50.70;29.77;;;;;;;9.95;43.96;96136.38;5065334;28;20987;-69
2021/03/31 07:08:12;;;;;;;54.00;30.70;;;;;;;10.00;43.34;96123.44;5063330;28;20488;-68
2021/03/31 07:10:51;;;;;;;53.10;29.37;;;;;;;10.22;43.06;96129.03;5064240;28;20450;-71
2021/03/31 07:13:29;;;;;;;53.73;27.13;;;;;;;10.25;43.64;96131.19;5062083;28;20456;-71
2021/03/31 07:15:57;;;;;;;24.47;16.00;;;;;;;10.32;40.65;96124.84;5062873;28;20423;-72
2021/03/31 07:18:25;;;;;;;22.77;14.57;;;;;;;10.32;40.54;96131.91;5063139;28;20821;-69
2021/03/31 07:20:53;;;;;;;25.30;17.50;;;;;;;10.45;41.31;96131.72;5062516;28;20439;-71
2021/03/31 07:23:24;;;;;;;32.30;19.23;;;;;;;10.47;41.89;96134.91;5066917;28;20442;-74
2021/03/31 07:25:51;;;;;;;28.67;18.43;;;;;;;10.55;41.81;96122.28;5072207;28;20438;-69
2021/03/31 07:28:23;;;;;;;36.10;18.77;;;;;;;10.60;41.01;96137.34;5072499;28;20514;-74
2021/03/31 07:30:50;;;;;;;27.10;17.90;;;;;;;10.66;39.97;96121.50;5072651;28;21010;-71
2021/03/31 07:33:21;;;;;;;30.77;18.33;;;;;;;10.75;40.99;96124.56;5067028;28;20963;-70
2021/03/31 07:35:49;;;;;;;27.93;17.00;;;;;;;10.97;40.73;96120.38;5062947;28;20513;-70
2021/03/31 07:38:19;;;;;;;24.27;16.07;;;;;;;10.99;39.46;96128.81;5060144;28;20431;-72
2021/03/31 07:40:47;;;;;;;27.20;17.10;;;;;;;10.97;39.29;96130.88;5061421;28;20443;-73
2021/03/31 07:43:27;;;;;;;25.83;16.80;;;;;;;11.10;40.62;96130.66;5064146;28;20437;-72
2021/03/31 07:46:07;;;;;;;22.80;15.33;;;;;;;11.14;39.86;96122.09;5063550;28;20445;-71
2021/03/31 07:48:35;;;;;;;23.67;16.47;;;;;;;11.22;39.94;96129.63;5061805;28;21102;-71
2021/03/31 07:51:16;;;;;;;20.93;16.17;;;;;;;11.13;39.37;96124.97;5062471;28;20438;-71
2021/03/31 07:53:45;;;;;;;22.20;15.70;;;;;;;11.11;38.99;96127.78;5062190;28;20506;-71
2021/03/31 07:56:16;;;;;;;33.73;21.03;;;;;;;11.33;41.41;96124.59;5063592;28;20474;-71
2021/03/31 07:59:09;;;;;;;27.90;18.73;;;;;;;11.45;40.71;96117.50;5071813;28;20537;-69
2021/03/31 08:01:49;;;;;;;24.00;16.03;;;;;;;11.52;39.35;96128.69;5069338;28;20457;-69
2021/03/31 08:04:17;;;;;;;27.20;18.73;;;;;;;11.40;38.90;96120.84;5062601;28;20957;-70
2021/03/31 08:06:45;;;;;;;23.67;16.37;;;;;;;11.46;38.83;96134.88;5061097;28;20477;-68
2021/03/31 08:09:19;;;;;;;24.60;15.40;;;;;;;11.56;38.85;96120.13;5059338;28;20840;-68
2021/03/31 08:11:50;;;;;;;24.00;15.37;;;;;;;11.22;37.76;96124.38;5060357;28;20449;-69
2021/03/31 08:14:40;;;;;;;23.87;16.13;;;;;;;11.34;38.50;96116.50;5062328;28;20464;-69
2021/03/31 08:17:26;;;;;;;31.33;14.83;;;;;;;11.63;38.55;96122.59;5062158;28;20445;-72
2021/03/31 08:19:53;;;;;;;20.57;14.80;;;;;;;11.68;38.28;96120.09;5062291;28;20430;-67
2021/03/31 08:22:21;;;;;;;20.03;14.77;;;;;;;11.60;37.64;96120.44;5060940;28;20446;-71
2021/03/31 08:24:51;;;;;;;20.77;14.23;;;;;;;11.27;37.24;96115.03;5059471;28;20999;-69
2021/03/31 08:27:19;;;;;;;23.37;14.83;;;;;;;11.46;38.00;96113.88;5060968;28;20860;-72
2021/03/31 08:29:53;;;;;;;26.53;15.43;;;;;;;11.63;38.14;96109.47;5061634;28;20514;-71
2021/03/31 08:32:21;;;;;;;21.83;14.00;;;;;;;11.72;37.09;96116.00;5061623;28;20422;-69
2021/03/31 08:34:49;;;;;;;23.27;14.00;;;;;;;11.62;36.80;96100.03;5062287;28;20473;-73
2021/03/31 08:37:23;;;;;;;22.37;14.60;;;;;;;11.36;36.81;96108.38;5059923;28;20438;-70
2021/03/31 08:39:50;;;;;;;22.10;13.47;;;;;;;11.63;37.14;96109.47;5058951;28;20442;-67
2021/03/31 08:42:16;;;;;;;21.30;13.83;;;;;;;11.72;37.18;96121.25;5061075;28;20815;-67
2021/03/31 08:44:47;;;;;;;19.57;14.23;;;;;;;11.94;37.35;96103.81;5060533;28;20534;-69
2021/03/31 08:47:23;;;;;;;23.57;15.10;;;;;;;11.98;36.42;96107.59;5061601;28;20563;-71
2021/03/31 08:49:56;;;;;;;21.37;13.87;;;;;;;12.23;36.67;96100.16;5061324;28;20488;-70
2021/03/31 08:52:25;;;;;;;22.90;15.30;;;;;;;12.12;36.80;96099.19;5060521;28;20428;-69
2021/03/31 08:54:53;;;;;;;23.03;14.37;;;;;;;12.43;36.40;96102.34;5058681;28;21040;-70
2021/03/31 08:57:24;;;;;;;19.53;13.20;;;;;;;12.45;36.77;96103.72;5059996;28;20468;-69
2021/03/31 08:59:53;;;;;;;26.27;13.40;;;;;;;12.48;36.35;96097.19;5060916;28;20433;-72
2021/03/31 09:02:23;;;;;;;19.80;12.97;;;;;;;12.59;36.56;96094.47;5060036;28;20818;-70
2021/03/31 09:05:05;;;;;;;20.10;13.23;;;;;;;12.70;37.26;96067.28;5061065;28;20463;-69
2021/03/31 09:07:32;;;;;;;22.13;12.83;;;;;;;12.79;35.14;96084.28;5060382;28;20462;-67
2021/03/31 09:10:00;;;;;;;21.47;14.43;;;;;;;12.78;35.24;96079.25;5059302;28;20498;-68
2021/03/31 09:12:29;;;;;;;20.13;13.57;;;;;;;13.01;36.03;96082.50;5059260;28;20452;-68
2021/03/31 09:14:58;;;;;;;14.87;12.53;;;;;;;13.07;35.49;96086.84;5060959;28;20441;-68
2021/03/31 09:17:33;;;;;;;16.57;12.73;;;;;;;13.31;34.58;96071.63;5060704;28;20522;-69
2021/03/31 09:20:05;;;;;;;23.83;13.23;;;;;;;13.51;35.42;96057.91;5061145;28;20434;-69
2021/03/31 09:22:33;;;;;;;19.27;13.80;;;;;;;13.66;34.69;96063.38;5060507;28;20491;-71
2021/03/31 09:25:11;;;;;;;17.37;13.20;;;;;;;13.93;34.86;96061.56;5059472;28;20906;-68
2021/03/31 09:27:57;;;;;;;17.57;13.50;;;;;;;13.97;34.69;96057.41;5061924;28;20581;-72
2021/03/31 09:30:24;;;;;;;20.40;12.87;;;;;;;13.93;33.31;96051.84;5059490;28;20521;-72
2021/03/31 09:32:59;;;;;;;19.43;12.77;;;;;;;13.72;33.52;96052.63;5060740;28;20825;-71
2021/03/31 09:35:28;;;;;;;29.50;13.70;;;;;;;13.98;33.97;96035.25;5060613;28;20469;-74
2021/03/31 09:37:56;;;;;;;19.33;13.70;;;;;;;14.19;33.20;96047.63;5058941;28;20961;-69
2021/03/31 09:40:36;;;;;;;16.67;12.87;;;;;;;14.21;33.58;96040.25;5060577;28;20438;-69
2021/03/31 09:43:06;;;;;;;21.40;13.87;;;;;;;14.46;33.45;96027.31;5060305;28;20460;-71
2021/03/31 09:45:37;;;;;;;20.80;13.13;;;;;;;14.56;32.49;96042.44;5070468;28;20438;-72
2021/03/31 09:48:05;;;;;;;20.73;13.50;;;;;;;15.14;33.05;96040.44;5070198;28;20470;-69
2021/03/31 09:50:37;;;;;;;18.27;12.97;;;;;;;15.23;32.04;96033.66;5070255;28;20444;-68
2021/03/31 09:53:05;;;;;;;16.67;13.27;;;;;;;15.31;31.25;96029.69;5069708;28;20448;-72
2021/03/31 09:55:34;;;;;;;17.23;12.60;;;;;;;15.50;31.71;96032.72;5070392;28;20496;-70
2021/03/31 09:58:01;;;;;;;18.33;13.23;;;;;;;15.58;31.62;96029.59;5070117;28;20964;-69
2021/03/31 10:00:28;;;;;;;17.53;13.13;;;;;;;15.81;31.49;96027.28;5070301;28;20450;-70
2021/03/31 10:02:55;;;;;;;23.50;13.47;;;;;;;15.60;31.46;96019.56;5070564;28;20453;-67
2021/03/31 10:05:26;;;;;;;18.67;13.10;;;;;;;15.63;30.66;96005.81;5069969;28;20442;-66
2021/03/31 10:08:05;;;;;;;17.13;12.53;;;;;;;15.94;31.96;96013.59;5069590;28;20473;-70
2021/03/31 10:10:45;;;;;;;16.87;12.70;;;;;;;15.61;31.16;96003.44;5070173;28;20951;-69
2021/03/31 10:13:35;;;;;;;18.00;12.43;;;;;;;16.09;31.36;95999.59;5073712;28;20438;-71
2021/03/31 10:16:05;;;;;;;22.10;12.67;;;;;;;16.11;31.32;95992.97;5073733;28;20503;-70
2021/03/31 10:18:33;;;;;;;19.03;12.30;;;;;;;16.31;31.33;96005.44;5073951;28;20816;-69
2021/03/31 10:21:02;;;;;;;19.03;13.40;;;;;;;15.87;29.70;95983.16;5074336;28;20448;-70
2021/03/31 10:23:31;;;;;;;32.57;13.70;;;;;;;16.14;30.70;95986.38;5073411;28;20444;-70
2021/03/31 10:26:21;;;;;;;19.17;12.57;;;;;;;16.30;29.90;95987.97;5077311;28;20438;-67
2021/03/31 10:28:52;;;;;;;17.83;12.57;;;;;;;16.44;30.04;95969.72;5076926;28;20543;-71
2021/03/31 10:31:39;;;;;;;17.80;11.97;;;;;;;16.40;29.72;95968.66;5064208;28;20460;-74
2021/03/31 10:34:12;;;;;;;15.17;12.17;;;;;;;16.73;29.88;95963.63;5053601;28;20446;-71
2021/03/31 10:49:51;;;;;;;22.40;12.27;;;;;;;17.29;28.17;95940.41;5063631;28;20422;-73
2021/03/31 10:54:44;;;;;;;22.23;12.07;;;;;;;17.26;29.23;95929.56;5056171;28;20481;-70
2021/03/31 10:57:12;;;;;;;16.47;11.20;;;;;;;17.32;28.88;95928.50;5053136;28;20474;-71
2021/03/31 10:59:40;;;;;;;16.90;11.13;;;;;;;16.76;28.41;95927.88;5053118;28;20438;-72
2021/03/31 11:02:07;;;;;;;18.93;11.10;;;;;;;16.58;28.15;95923.97;5053067;28;20449;-72
2021/03/31 11:04:34;;;;;;;14.13;11.00;;;;;;;16.89;28.51;95936.06;5053483;28;20484;-73
2021/03/31 11:07:01;;;;;;;17.43;11.60;;;;;;;16.68;29.05;95916.00;5051461;28;20450;-71
2021/03/31 11:09:28;;;;;;;14.20;10.10;;;;;;;16.74;28.52;95927.34;5052663;28;20485;-67
2021/03/31 11:11:58;;;;;;;14.40;10.13;;;;;;;17.15;28.65;95912.94;5052872;28;20512;-71
2021/03/31 11:14:26;;;;;;;15.17;10.47;;;;;;;17.50;28.09;95904.81;5052726;28;20822;-73
2021/03/31 11:16:57;;;;;;;13.43;9.43;;;;;;;17.76;26.95;95897.50;5053005;28;20485;-71
2021/03/31 11:27:31;;;;;;;14.30;9.67;;;;;;;18.35;26.08;95889.34;5052633;28;20854;-69
2021/03/31 11:30:02;;;;;;;13.57;8.63;;;;;;;18.50;25.58;95882.09;5052365;28;20447;-70
2021/03/31 11:32:29;;;;;;;12.03;8.67;;;;;;;18.92;25.46;95884.78;5051469;28;20439;-69
2021/03/31 11:34:55;;;;;;;11.23;8.40;;;;;;;19.21;24.90;95871.44;5052514;28;20439;-73
2021/03/31 11:37:22;;;;;;;13.03;9.13;;;;;;;18.77;23.67;95865.59;5050701;28;20447;-70
2021/03/31 11:39:48;;;;;;;12.00;8.40;;;;;;;18.64;25.10;95856.44;5052488;28;20832;-70
2021/03/31 11:42:15;;;;;;;14.77;8.30;;;;;;;18.69;25.08;95874.16;5052267;28;20445;-72
2021/03/31 11:44:41;;;;;;;16.20;10.20;;;;;;;18.51;25.04;95865.06;5052461;28;20537;-73
2021/03/31 11:47:08;;;;;;;9.77;8.77;;;;;;;18.63;24.37;95854.06;5052830;28;20446;-71
2021/03/31 11:49:35;;;;;;;12.40;8.97;;;;;;;19.08;24.64;95851.69;5052161;28;20438;-68
2021/03/31 11:52:03;;;;;;;11.73;8.63;;;;;;;19.21;24.38;95840.31;5051944;28;20444;-72
2021/03/31 11:54:29;;;;;;;19.30;9.33;;;;;;;19.51;23.64;95839.16;5052221;28;20443;-69
2021/03/31 11:56:58;;;;;;;11.73;8.67;;;;;;;19.95;23.37;95838.72;5052745;28;20424;-68
2021/03/31 11:59:25;;;;;;;11.33;8.50;;;;;;;20.01;23.50;95833.06;5052390;28;20512;-68